Time;durP1;ratioP1;P1;durP2;ratioP2;P2;SDS_P1;SDS_P2;PMS_P1;PMS_P2;Temp;Humidity;BMP_temperature;BMP_pressure;BME280_temperature;BME280_humidity;BME280_pressure;Samples;Min_cycle;Max_cycle;Signal;HPM_P1;HPM_P2
2021/01/07 00:01:22;;;;;;;37.47;22.07;;;;;;;9.40;86.27;94600.22;5095108;28;20446;-84
2021/01/07 00:03:49;;;;;;;35.60;22.50;;;;;;;9.40;85.55;94597.59;5059088;28;20440;-84
2021/01/07 00:06:15;;;;;;;35.20;21.70;;;;;;;9.40;86.44;94592.38;5094990;28;20445;-85
2021/01/07 00:08:43;;;;;;;39.33;23.87;;;;;;;9.40;86.65;94589.75;5059290;28;20590;-83
2021/01/07 00:11:10;;;;;;;32.63;20.30;;;;;;;9.41;85.64;94591.41;5094695;28;20496;-84
2021/01/07 00:13:37;;;;;;;43.93;23.87;;;;;;;9.38;86.54;94589.03;5094925;28;20452;-84
2021/01/07 00:16:03;;;;;;;38.87;22.27;;;;;;;9.35;86.80;94581.44;5094678;28;20453;-84
2021/01/07 00:18:30;;;;;;;42.87;24.27;;;;;;;9.36;86.64;94577.88;5094772;28;20473;-84
2021/01/07 00:20:56;;;;;;;42.90;24.70;;;;;;;9.37;87.58;94585.59;5094923;28;20466;-84
2021/01/07 00:23:22;;;;;;;45.70;23.60;;;;;;;9.35;87.59;94573.59;5094595;28;20446;-85
2021/01/07 00:25:51;;;;;;;32.00;22.77;;;;;;;9.35;87.83;94574.44;5058338;28;20461;-84
2021/01/07 00:28:19;;;;;;;36.67;24.27;;;;;;;9.33;87.80;94573.72;5094445;28;20492;-85
2021/01/07 00:30:46;;;;;;;36.03;23.33;;;;;;;9.34;88.12;94580.63;5094203;28;20450;-85
2021/01/07 00:33:14;;;;;;;39.13;22.53;;;;;;;9.33;88.00;94586.81;5094209;28;20867;-84
2021/01/07 00:35:41;;;;;;;33.70;21.90;;;;;;;9.29;88.16;94581.03;5094095;28;20483;-84
2021/01/07 00:38:07;;;;;;;43.90;24.77;;;;;;;9.28;88.04;94581.16;5094131;28;20456;-84
2021/01/07 00:40:35;;;;;;;42.77;24.03;;;;;;;9.26;88.76;94581.28;5094010;28;20450;-84
2021/01/07 00:43:03;;;;;;;45.53;25.93;;;;;;;9.23;89.03;94576.28;5058798;28;20437;-84
2021/01/07 00:45:31;;;;;;;39.70;24.37;;;;;;;9.27;89.36;94588.19;5094055;28;20449;-83
2021/01/07 00:47:58;;;;;;;34.47;21.80;;;;;;;9.29;88.87;94572.34;5094024;28;20982;-84
2021/01/07 00:50:24;;;;;;;42.23;21.43;;;;;;;9.29;88.78;94574.94;5094185;28;20440;-84
2021/01/07 00:52:50;;;;;;;28.43;15.50;;;;;;;9.25;89.02;94584.00;5094035;28;20441;-84
2021/01/07 00:55:17;;;;;;;28.40;17.73;;;;;;;9.24;88.87;94562.22;5093999;28;21649;-84
2021/01/07 00:57:44;;;;;;;25.87;17.50;;;;;;;9.21;89.59;94565.09;5041630;28;20462;-83
2021/01/07 01:00:15;;;;;;;23.93;17.20;;;;;;;9.18;89.49;94573.22;5094157;28;20444;-84
2021/01/07 01:02:41;;;;;;;31.17;20.90;;;;;;;9.17;90.23;94574.19;5094052;28;20817;-84
2021/01/07 01:05:09;;;;;;;25.90;18.07;;;;;;;9.16;90.64;94558.59;5093953;28;20817;-84
2021/01/07 01:07:35;;;;;;;29.23;19.37;;;;;;;8.86;91.56;94564.63;5093673;28;20438;-85
2021/01/07 01:10:04;;;;;;;31.90;20.03;;;;;;;8.96;90.99;94565.50;5093442;28;20449;-85
2021/01/07 01:12:30;;;;;;;30.23;19.60;;;;;;;8.98;91.86;94563.63;5093597;28;20446;-84
2021/01/07 01:14:56;;;;;;;29.63;19.47;;;;;;;8.98;91.86;94561.84;5093502;28;20451;-85
2021/01/07 01:17:24;;;;;;;31.67;19.73;;;;;;;9.03;92.00;94550.16;5058056;28;20421;-85
2021/01/07 01:19:50;;;;;;;32.47;19.63;;;;;;;9.03;92.05;94558.81;5093560;28;20513;-84
2021/01/07 01:22:16;;;;;;;31.13;18.23;;;;;;;9.00;92.16;94549.44;5093585;28;20452;-84
2021/01/07 01:24:43;;;;;;;29.63;19.40;;;;;;;9.02;92.60;94549.31;5058229;28;20960;-85
2021/01/07 01:27:09;;;;;;;25.43;16.47;;;;;;;9.03;92.26;94544.91;5093708;28;20940;-85
2021/01/07 01:29:35;;;;;;;24.50;15.90;;;;;;;9.03;91.70;94529.22;5093753;28;20481;-85
2021/01/07 01:32:02;;;;;;;20.03;13.80;;;;;;;8.88;92.85;94528.69;5093728;28;20428;-85
2021/01/07 01:34:29;;;;;;;24.13;14.80;;;;;;;8.85;92.96;94521.09;5093597;28;20452;-85
2021/01/07 01:36:55;;;;;;;23.17;14.10;;;;;;;8.86;93.72;94526.22;5092992;28;21049;-85
2021/01/07 01:39:22;;;;;;;17.10;12.87;;;;;;;8.87;93.55;94525.25;5008528;28;20432;-84
2021/01/07 01:41:49;;;;;;;17.53;12.80;;;;;;;8.86;93.54;94514.91;5093451;28;21015;-85
2021/01/07 01:44:17;;;;;;;16.40;11.33;;;;;;;8.93;93.05;94510.81;5058129;28;20501;-84
2021/01/07 01:46:44;;;;;;;16.23;11.57;;;;;;;8.92;92.38;94523.06;5093263;28;20446;-85
2021/01/07 01:49:12;;;;;;;23.40;13.03;;;;;;;8.89;92.56;94512.03;5095234;28;20530;-85
2021/01/07 01:51:40;;;;;;;17.03;12.07;;;;;;;8.87;92.56;94511.34;5093382;28;20437;-85
2021/01/07 01:54:06;;;;;;;17.30;11.20;;;;;;;8.85;93.04;94513.25;5093386;28;20444;-85
2021/01/07 01:56:33;;;;;;;21.07;14.20;;;;;;;8.80;92.50;94499.75;5094424;28;20485;-85
2021/01/07 01:59:02;;;;;;;21.33;14.43;;;;;;;8.81;92.77;94498.78;5094842;28;20441;-85
2021/01/07 02:01:29;;;;;;;20.03;13.90;;;;;;;8.80;92.92;94489.28;5092935;28;20445;-86
2021/01/07 02:03:56;;;;;;;29.60;18.90;;;;;;;8.77;92.71;94487.75;5093161;28;20457;-85
2021/01/07 02:06:27;;;;;;;23.67;16.97;;;;;;;8.79;93.11;94483.22;5093687;28;20455;-83
2021/01/07 02:08:55;;;;;;;29.83;18.07;;;;;;;8.82;93.38;94485.56;5093183;28;20486;-84
2021/01/07 02:11:23;;;;;;;42.10;20.43;;;;;;;8.74;93.52;94472.31;5092964;28;20448;-83
2021/01/07 02:13:50;;;;;;;26.17;19.77;;;;;;;8.76;93.88;94472.19;5093546;28;20453;-84
2021/01/07 02:16:20;;;;;;;25.90;17.83;;;;;;;8.72;94.01;94460.31;5093143;28;20449;-84
2021/01/07 02:18:46;;;;;;;30.50;18.43;;;;;;;8.72;93.77;94444.63;5093652;28;20452;-86
2021/01/07 02:21:14;;;;;;;28.20;15.57;;;;;;;8.59;93.42;94429.97;5074208;28;20424;-83
2021/01/07 02:23:47;;;;;;;21.20;15.20;;;;;;;8.58;94.29;94435.31;5093227;28;20443;-83
2021/01/07 02:26:14;;;;;;;24.10;16.23;;;;;;;8.56;94.82;94424.16;5093281;28;20452;-86
2021/01/07 02:28:41;;;;;;;20.43;13.80;;;;;;;8.60;94.66;94421.16;5092701;28;20480;-84
2021/01/07 02:31:07;;;;;;;24.87;14.23;;;;;;;8.61;94.04;94420.19;5092927;28;20449;-84
2021/01/07 02:33:33;;;;;;;26.10;16.97;;;;;;;8.49;93.00;94413.41;5092055;28;20499;-84
2021/01/07 02:36:00;;;;;;;34.80;22.90;;;;;;;8.20;94.72;94420.19;5093084;28;20471;-84
2021/01/07 02:38:27;;;;;;;26.23;17.63;;;;;;;8.27;95.06;94437.03;5099265;28;20832;-83
2021/01/07 02:40:53;;;;;;;18.57;13.40;;;;;;;8.24;94.85;94421.59;5111250;28;20425;-84
2021/01/07 02:43:19;;;;;;;18.87;13.73;;;;;;;8.20;94.33;94414.97;5097810;28;20806;-84
2021/01/07 02:45:46;;;;;;;20.53;13.23;;;;;;;8.11;94.43;94434.88;5094558;28;20737;-86
2021/01/07 02:48:12;;;;;;;17.70;12.63;;;;;;;8.21;94.83;94434.94;5093440;28;20495;-83
2021/01/07 02:50:38;;;;;;;18.27;11.67;;;;;;;8.20;94.25;94438.50;5095275;28;20440;-84
2021/01/07 02:53:05;;;;;;;16.90;10.50;;;;;;;8.16;94.28;94437.94;5096810;28;20944;-84
2021/01/07 02:55:32;;;;;;;14.63;11.80;;;;;;;8.02;94.65;94436.44;5096374;28;20459;-84
2021/01/07 02:57:58;;;;;;;15.97;11.80;;;;;;;8.10;94.94;94466.34;5096787;28;20938;-84
2021/01/07 03:00:25;;;;;;;12.23;8.93;;;;;;;8.03;94.69;94438.09;5096563;28;20431;-83
2021/01/07 03:02:52;;;;;;;10.53;8.70;;;;;;;7.97;95.79;94446.44;5096276;28;20809;-85
2021/01/07 03:05:18;;;;;;;15.07;9.70;;;;;;;8.15;95.39;94443.28;5096927;28;20441;-84
2021/01/07 03:07:44;;;;;;;16.50;10.50;;;;;;;8.21;94.98;94453.22;5096888;28;20440;-85
2021/01/07 03:10:12;;;;;;;13.97;9.10;;;;;;;8.26;94.55;94443.22;5096609;28;20451;-84
2021/01/07 03:12:39;;;;;;;5.90;4.77;;;;;;;8.26;94.55;94435.38;5044595;28;20435;-83
2021/01/07 03:15:07;;;;;;;13.43;6.63;;;;;;;8.45;94.31;94442.56;5044301;28;20440;-84
2021/01/07 03:17:33;;;;;;;6.40;4.40;;;;;;;8.52;93.45;94434.06;5095971;28;20459;-84
2021/01/07 03:20:11;;;;;;;5.13;4.17;;;;;;;8.61;93.24;94429.81;5095977;28;20443;-84
2021/01/07 03:22:37;;;;;;;4.03;3.60;;;;;;;8.65;92.47;94434.66;5096034;28;20451;-84
2021/01/07 03:25:05;;;;;;;3.47;3.17;;;;;;;8.81;91.15;94444.66;5095987;28;20455;-85
2021/01/07 03:27:31;;;;;;;2.40;2.17;;;;;;;8.97;90.44;94441.59;5095809;28;20441;-85
2021/01/07 03:29:58;;;;;;;2.50;2.30;;;;;;;9.14;90.19;94438.34;5095480;28;20484;-85
2021/01/07 03:32:25;;;;;;;2.70;2.50;;;;;;;9.29;89.59;94442.25;5096050;28;20437;-84
2021/01/07 03:34:51;;;;;;;2.87;2.60;;;;;;;9.37;88.27;94443.38;5095681;28;20484;-83
2021/01/07 03:37:17;;;;;;;4.20;3.00;;;;;;;9.46;87.20;94450.41;5095450;28;20446;-86
2021/01/07 03:39:44;;;;;;;3.50;2.37;;;;;;;9.57;85.84;94452.94;5095243;28;20936;-81
2021/01/07 03:42:10;;;;;;;4.07;2.63;;;;;;;9.54;86.04;94438.31;5095369;28;20501;-82
2021/01/07 03:44:37;;;;;;;4.00;2.30;;;;;;;9.52;86.72;94444.63;5094848;28;20450;-83
2021/01/07 03:47:04;;;;;;;8.30;5.30;;;;;;;9.58;85.70;94444.94;5095216;28;20442;-82
2021/01/07 03:49:30;;;;;;;6.63;5.93;;;;;;;9.58;85.96;94431.84;5095017;28;20481;-82
2021/01/07 03:51:57;;;;;;;14.00;5.90;;;;;;;9.64;86.00;94443.56;5095371;28;20449;-83
2021/01/07 03:54:23;;;;;;;7.30;6.40;;;;;;;9.68;85.22;94436.25;5095116;28;20454;-82
2021/01/07 03:56:49;;;;;;;4.87;3.87;;;;;;;9.65;83.87;94442.59;5095325;28;20485;-83
2021/01/07 03:59:16;;;;;;;13.20;5.57;;;;;;;9.60;84.26;94437.78;5094711;28;20449;-83
2021/01/07 04:01:42;;;;;;;2.80;2.60;;;;;;;9.66;82.83;94433.78;5094824;28;20442;-82
2021/01/07 04:04:09;;;;;;;2.37;2.20;;;;;;;9.76;81.90;94428.53;5094452;28;20934;-82
2021/01/07 04:06:36;;;;;;;2.33;1.80;;;;;;;9.84;81.25;94419.06;5095011;28;20442;-81
2021/01/07 04:09:03;;;;;;;4.90;2.80;;;;;;;9.84;80.59;94424.31;5094664;28;20486;-83
2021/01/07 04:11:29;;;;;;;2.53;2.27;;;;;;;9.89;80.70;94414.22;5094428;28;20440;-82
2021/01/07 04:13:55;;;;;;;3.90;1.93;;;;;;;9.94;80.48;94404.16;5095111;28;20442;-82
2021/01/07 04:16:22;;;;;;;2.10;2.00;;;;;;;9.99;79.52;94398.50;5094568;28;20449;-79
2021/01/07 04:18:48;;;;;;;3.33;2.37;;;;;;;10.05;80.02;94408.41;5094423;28;20445;-83
2021/01/07 04:21:19;;;;;;;3.13;1.93;;;;;;;9.93;78.89;94407.75;5094672;28;20454;-84
2021/01/07 04:23:45;;;;;;;3.70;3.40;;;;;;;10.05;78.90;94412.84;5094604;28;20820;-88
2021/01/07 04:26:12;;;;;;;2.07;1.43;;;;;;;10.04;78.22;94412.00;5094536;28;20934;-88
2021/01/07 04:28:38;;;;;;;1.70;1.60;;;;;;;10.13;76.81;94411.19;5094634;28;20486;-83
2021/01/07 04:31:04;;;;;;;1.80;1.70;;;;;;;10.17;76.13;94422.22;5094499;28;20450;-82
2021/01/07 04:33:31;;;;;;;1.60;1.50;;;;;;;10.21;75.35;94421.00;5094510;28;20437;-82
2021/01/07 04:35:57;;;;;;;2.23;2.00;;;;;;;10.23;75.52;94411.22;5094133;28;20444;-82
2021/01/07 04:38:24;;;;;;;3.40;2.20;;;;;;;10.29;74.75;94429.00;5094343;28;20439;-91
2021/01/07 04:40:51;;;;;;;3.40;2.20;;;;;;;10.30;74.49;94435.91;5094715;28;20443;-84
2021/01/07 04:43:17;;;;;;;3.33;2.20;;;;;;;10.20;74.99;94432.44;5042747;28;20493;-85
2021/01/07 04:45:43;;;;;;;3.37;2.70;;;;;;;10.32;75.82;94431.34;5094168;28;20450;-86
2021/01/07 04:48:10;;;;;;;3.10;2.03;;;;;;;10.40;75.51;94428.84;5094245;28;20479;-82
2021/01/07 04:50:36;;;;;;;3.90;3.10;;;;;;;10.37;76.16;94423.88;5093658;28;20432;-84
2021/01/07 04:53:03;;;;;;;3.00;2.70;;;;;;;10.39;76.61;94423.72;5093939;28;20208;-84
2021/01/07 04:55:30;;;;;;;2.70;2.50;;;;;;;10.50;74.78;94432.28;5042013;28;20455;-87
2021/01/07 04:57:56;;;;;;;2.63;2.43;;;;;;;10.49;73.63;94428.00;5094048;28;20810;-85
2021/01/07 05:00:23;;;;;;;4.47;3.37;;;;;;;10.44;75.59;94438.09;5094512;28;20848;-89
2021/01/07 05:02:51;;;;;;;4.68;3.58;;;;;;;10.50;74.79;94429.66;5093616;28;20433;-81
2021/01/07 05:05:18;;;;;;;4.43;4.03;;;;;;;10.53;76.11;94439.03;5093599;28;20209;-84
2021/01/07 05:07:44;;;;;;;6.80;5.60;;;;;;;10.53;77.00;94439.88;5094068;28;20436;-85
2021/01/07 05:10:11;;;;;;;8.20;5.93;;;;;;;10.45;77.27;94458.13;5093925;28;20524;-84
2021/01/07 05:12:40;;;;;;;10.00;5.80;;;;;;;10.39;76.79;94432.41;5093018;28;20495;-85
2021/01/07 05:15:08;;;;;;;8.20;6.87;;;;;;;10.32;77.17;94447.06;5093926;28;20455;-83
2021/01/07 05:17:35;;;;;;;12.20;7.73;;;;;;;10.35;77.18;94454.66;5058060;28;20440;-84
2021/01/07 05:20:02;;;;;;;9.20;5.70;;;;;;;10.27;75.89;94458.94;5093783;28;20444;-84
2021/01/07 05:22:35;;;;;;;16.43;7.80;;;;;;;10.12;76.26;94455.88;5093467;28;20445;-84
2021/01/07 05:25:02;;;;;;;9.23;5.83;;;;;;;10.12;76.65;94450.63;5093598;28;20818;-84
2021/01/07 05:27:28;;;;;;;4.67;4.27;;;;;;;10.04;75.91;94453.94;5093922;28;20445;-85
2021/01/07 05:30:01;;;;;;;6.37;4.07;;;;;;;10.01;74.86;94454.22;5093129;28;20486;-84
2021/01/07 05:32:35;;;;;;;3.03;2.30;;;;;;;10.12;74.37;94469.84;5092981;28;20936;-84
2021/01/07 05:35:01;;;;;;;3.93;3.60;;;;;;;10.20;74.99;94467.38;5093383;28;20446;-84
2021/01/07 05:37:32;;;;;;;156.00;66.70;;;;;;;10.26;73.07;94470.41;5093503;28;20449;-84
2021/01/07 05:40:03;;;;;;;2.53;2.33;;;;;;;10.32;72.96;94468.06;5093235;28;20856;-84
2021/01/07 05:42:36;;;;;;;3.40;2.33;;;;;;;10.39;73.43;94469.16;5093481;28;20461;-84
2021/01/07 05:45:07;;;;;;;1.90;1.80;;;;;;;10.45;72.85;94463.38;5102784;28;20488;-84
2021/01/07 05:47:39;;;;;;;2.20;2.00;;;;;;;10.52;71.92;94451.34;5109650;28;20485;-85
2021/01/07 05:50:07;;;;;;;2.30;2.10;;;;;;;10.54;70.32;94451.19;5094895;28;20552;-84
2021/01/07 05:52:33;;;;;;;2.50;1.77;;;;;;;10.61;70.57;94446.19;5076545;28;20432;-84
2021/01/07 05:55:00;;;;;;;2.13;1.93;;;;;;;10.61;70.89;94451.44;5093351;28;20443;-85
2021/01/07 05:57:29;;;;;;;1.90;1.80;;;;;;;10.63;70.93;94446.88;5092896;28;20467;-84
2021/01/07 05:59:57;;;;;;;1.90;1.80;;;;;;;10.65;71.52;94432.66;5040825;28;20455;-84
2021/01/07 06:02:24;;;;;;;1.87;1.77;;;;;;;10.68;70.72;94416.63;5092574;28;20482;-85
2021/01/07 06:04:54;;;;;;;2.20;2.10;;;;;;;10.72;70.70;94428.53;5074272;28;20450;-85
2021/01/07 06:07:21;;;;;;;2.33;2.13;;;;;;;10.69;71.74;94443.69;5092671;28;20533;-85
2021/01/07 06:09:48;;;;;;;2.17;1.97;;;;;;;10.73;71.42;94445.09;5092701;28;20486;-84
2021/01/07 06:12:15;;;;;;;2.30;2.13;;;;;;;10.74;71.33;94437.06;5092661;28;20443;-84
2021/01/07 06:14:43;;;;;;;2.70;2.50;;;;;;;10.77;70.65;94449.09;5092740;28;20443;-85
2021/01/07 06:17:10;;;;;;;2.47;2.27;;;;;;;10.76;71.37;94444.81;5040924;28;20500;-84
2021/01/07 06:19:38;;;;;;;3.57;2.47;;;;;;;10.70;71.50;94445.38;5092757;28;20439;-84
2021/01/07 06:22:09;;;;;;;3.33;2.53;;;;;;;10.75;72.04;94456.28;5057349;28;20806;-84
2021/01/07 06:24:37;;;;;;;2.40;2.20;;;;;;;10.74;72.10;94447.56;5095696;28;20492;-85
2021/01/07 06:27:26;;;;;;;3.93;2.97;;;;;;;10.79;71.79;94434.03;5096653;28;20962;-84
2021/01/07 06:30:32;;;;;;;3.47;3.17;;;;;;;10.73;72.80;94450.34;5096814;28;20487;-85
2021/01/07 06:33:04;;;;;;;6.60;2.77;;;;;;;10.75;73.01;94435.28;5096619;28;20536;-84
2021/01/07 06:35:35;;;;;;;3.03;2.77;;;;;;;10.77;72.55;94444.66;5096766;28;20452;-85
2021/01/07 06:38:01;;;;;;;4.20;2.80;;;;;;;10.75;72.43;94451.03;5096722;28;20454;-84
2021/01/07 06:40:28;;;;;;;3.73;2.60;;;;;;;10.75;72.19;94440.53;5096565;28;20469;-85
2021/01/07 06:42:55;;;;;;;2.30;2.10;;;;;;;10.76;72.61;94442.19;5096239;28;20446;-85
2021/01/07 06:45:23;;;;;;;2.80;2.40;;;;;;;10.76;72.35;94447.44;5096453;28;20493;-86
2021/01/07 06:47:52;;;;;;;2.60;2.43;;;;;;;10.81;72.54;94458.31;5096052;28;20443;-85
2021/01/07 06:50:19;;;;;;;3.53;2.27;;;;;;;10.78;71.08;94456.81;5096118;28;21024;-84
2021/01/07 06:52:48;;;;;;;3.73;3.43;;;;;;;10.79;70.95;94461.09;5096383;28;20440;-85
2021/01/07 06:55:15;;;;;;;4.67;2.60;;;;;;;10.77;71.16;94454.34;5096038;28;20454;-84
2021/01/07 06:57:45;;;;;;;4.60;2.40;;;;;;;10.80;70.66;94467.16;5096081;28;20979;-84
2021/01/07 07:00:14;;;;;;;4.40;2.90;;;;;;;10.81;70.11;94466.19;5095963;28;20443;-84
2021/01/07 07:02:56;;;;;;;2.63;2.37;;;;;;;10.82;71.04;94476.56;5095997;28;20448;-84
2021/01/07 07:05:24;;;;;;;3.27;2.93;;;;;;;10.84;71.29;94455.41;5096037;28;20443;-84
2021/01/07 07:08:08;;;;;;;2.63;2.40;;;;;;;10.90;71.11;94465.34;5096596;28;20443;-84
2021/01/07 07:11:11;;;;;;;4.70;2.60;;;;;;;10.96;69.77;94485.75;5096113;28;20783;-84
2021/01/07 07:13:43;;;;;;;3.20;3.00;;;;;;;11.03;70.75;94486.88;5095947;28;20449;-85
2021/01/07 07:16:14;;;;;;;7.83;4.10;;;;;;;11.09;70.71;94499.41;5096348;28;20465;-84
2021/01/07 07:18:41;;;;;;;6.57;3.00;;;;;;;11.09;69.37;94499.41;5095799;28;20902;-84
2021/01/07 07:21:15;;;;;;;3.47;3.17;;;;;;;11.10;69.93;94508.13;5096048;28;20814;-85
2021/01/07 07:23:43;;;;;;;9.63;3.20;;;;;;;11.11;68.63;94505.34;5096129;28;20495;-84
2021/01/07 07:26:12;;;;;;;5.13;4.63;;;;;;;11.16;69.72;94512.81;5060006;28;20537;-84
2021/01/07 07:28:43;;;;;;;3.20;2.90;;;;;;;11.21;69.35;94526.31;5095553;28;20518;-84
2021/01/07 07:31:10;;;;;;;3.70;3.40;;;;;;;11.23;69.46;94505.16;5095665;28;20495;-85
2021/01/07 07:33:38;;;;;;;4.77;3.13;;;;;;;11.24;69.04;94509.44;5095446;28;20439;-84
2021/01/07 07:36:06;;;;;;;3.03;2.73;;;;;;;11.26;69.37;94515.38;5043599;28;20440;-83
2021/01/07 07:38:34;;;;;;;6.90;3.27;;;;;;;11.27;69.13;94517.88;5095514;28;20452;-85
2021/01/07 07:41:04;;;;;;;11.80;4.30;;;;;;;11.30;69.33;94522.03;5095353;28;20447;-84
2021/01/07 07:43:32;;;;;;;3.43;3.10;;;;;;;11.32;69.51;94512.22;5095423;28;20444;-85
2021/01/07 07:45:59;;;;;;;4.77;4.10;;;;;;;11.35;68.99;94530.31;5095152;28;20447;-85
2021/01/07 07:48:27;;;;;;;5.17;3.27;;;;;;;11.40;68.82;94541.22;5043575;28;20482;-84
2021/01/07 07:51:04;;;;;;;2.70;2.50;;;;;;;11.43;69.09;94540.91;5095440;28;20449;-85
2021/01/07 07:53:31;;;;;;;17.23;4.67;;;;;;;11.43;68.72;94549.63;5095542;28;21014;-84
2021/01/07 07:55:57;;;;;;;10.27;6.47;;;;;;;11.44;68.33;94551.28;5094918;28;20487;-85
2021/01/07 07:58:26;;;;;;;25.47;12.10;;;;;;;11.46;68.54;94564.28;5094938;28;20444;-85
2021/01/07 08:00:53;;;;;;;40.40;17.40;;;;;;;11.38;71.25;94566.78;5094758;28;20469;-85
2021/01/07 08:03:24;;;;;;;39.30;14.97;;;;;;;11.34;72.31;94583.81;5095253;28;20446;-84
2021/01/07 08:05:52;;;;;;;20.53;9.80;;;;;;;11.32;73.62;94591.84;5095258;28;20852;-84
2021/01/07 08:08:22;;;;;;;14.20;9.90;;;;;;;11.20;76.10;94600.00;5095033;28;20439;-84
2021/01/07 08:10:49;;;;;;;18.70;11.80;;;;;;;11.01;77.77;94608.75;5095062;28;20466;-84
2021/01/07 08:13:19;;;;;;;18.50;11.03;;;;;;;10.93;78.59;94612.06;5094776;28;20448;-84
2021/01/07 08:15:48;;;;;;;14.87;6.17;;;;;;;10.45;78.73;94618.13;5076042;28;20496;-85
2021/01/07 08:18:16;;;;;;;4.93;4.43;;;;;;;10.09;79.75;94642.28;5095060;28;20442;-84
2021/01/07 08:20:42;;;;;;;2.63;2.43;;;;;;;9.69;77.96;94663.22;5094802;28;20497;-84
2021/01/07 08:23:10;;;;;;;4.70;2.00;;;;;;;8.99;78.63;94664.72;5094384;28;20445;-85
2021/01/07 08:25:36;;;;;;;2.20;2.00;;;;;;;8.61;79.60;94696.59;5094394;28;20441;-85
2021/01/07 08:28:14;;;;;;;2.27;2.07;;;;;;;8.38;80.42;94704.50;5094420;28;20505;-84
2021/01/07 08:30:46;;;;;;;4.20;2.50;;;;;;;8.28;80.94;94713.16;5094305;28;20497;-84
2021/01/07 08:33:16;;;;;;;11.70;4.03;;;;;;;8.24;80.95;94737.88;5091322;28;20452;-83
2021/01/07 08:35:43;;;;;;;6.27;3.43;;;;;;;8.02;81.27;94721.22;5094854;28;20783;-84
2021/01/07 08:38:10;;;;;;;2.50;2.30;;;;;;;7.84;81.42;94733.13;5094155;28;20979;-84
2021/01/07 08:40:37;;;;;;;3.60;2.27;;;;;;;7.76;81.44;94730.25;5094077;28;20448;-85
2021/01/07 08:43:11;;;;;;;2.97;2.67;;;;;;;7.61;82.84;94731.41;5094075;28;20443;-84
2021/01/07 08:45:38;;;;;;;3.03;2.43;;;;;;;7.46;82.77;94742.06;5094194;28;20444;-85
2021/01/07 08:48:05;;;;;;;4.00;1.70;;;;;;;7.18;83.86;94721.56;5093321;28;20444;-85
2021/01/07 08:50:33;;;;;;;3.10;2.30;;;;;;;7.07;83.63;94750.25;5098422;28;20521;-84
2021/01/07 08:53:00;;;;;;;2.60;2.17;;;;;;;7.05;84.45;94733.88;5111730;28;20450;-84
2021/01/07 08:55:49;;;;;;;3.27;2.53;;;;;;;6.93;84.59;94735.56;5102411;28;20520;-83
2021/01/07 08:58:25;;;;;;;6.80;3.00;;;;;;;6.87;84.31;94750.84;5098588;28;20444;-83
2021/01/07 09:00:53;;;;;;;2.03;1.90;;;;;;;6.75;83.98;94748.19;5095356;28;20447;-84
2021/01/07 09:03:19;;;;;;;3.13;2.70;;;;;;;6.69;84.24;94759.06;5093755;28;20484;-84
2021/01/07 09:05:47;;;;;;;5.60;3.17;;;;;;;6.73;85.03;94757.06;5094153;28;20448;-84
2021/01/07 09:08:14;;;;;;;3.70;2.70;;;;;;;6.60;86.29;94751.06;5093593;28;20569;-84
2021/01/07 09:10:42;;;;;;;11.23;5.60;;;;;;;6.57;88.35;94759.94;5093722;28;20441;-84
2021/01/07 09:13:22;;;;;;;6.40;4.00;;;;;;;6.52;88.00;94752.44;5093953;28;20435;-85
2021/01/07 09:15:49;;;;;;;7.00;3.67;;;;;;;6.34;89.53;94758.13;5093276;28;20462;-84
2021/01/07 09:18:18;;;;;;;6.47;5.23;;;;;;;6.32;90.86;94757.38;5042084;28;20444;-85
2021/01/07 09:20:45;;;;;;;7.90;5.13;;;;;;;6.24;91.95;94746.69;5093416;28;20447;-85
2021/01/07 09:23:15;;;;;;;2.93;2.73;;;;;;;6.04;91.96;94751.50;5094043;28;20443;-86
2021/01/07 09:25:42;;;;;;;7.67;4.10;;;;;;;6.03;93.34;94742.03;5093698;28;20444;-86
2021/01/07 09:28:08;;;;;;;8.20;5.57;;;;;;;5.99;94.07;94751.00;5094048;28;20454;-85
2021/01/07 09:30:35;;;;;;;9.53;6.73;;;;;;;6.06;95.33;94741.81;5093565;28;20997;-86
2021/01/07 09:33:02;;;;;;;4.30;3.93;;;;;;;6.03;94.30;94749.84;5074784;28;20432;-85
2021/01/07 09:35:29;;;;;;;6.07;5.10;;;;;;;6.04;95.14;94756.72;5093567;28;20473;-86
2021/01/07 09:37:56;;;;;;;2.93;2.73;;;;;;;5.99;94.85;94740.56;5094521;28;20440;-84
2021/01/07 09:40:24;;;;;;;2.20;2.10;;;;;;;6.04;94.71;94761.91;5094325;28;20522;-84
2021/01/07 09:42:51;;;;;;;4.50;3.13;;;;;;;6.12;94.80;94777.88;5042363;28;20458;-85
2021/01/07 09:45:17;;;;;;;5.00;3.57;;;;;;;6.15;94.31;94784.63;5093961;28;20819;-85
2021/01/07 09:47:44;;;;;;;2.10;1.90;;;;;;;6.17;93.99;94788.81;5094233;28;20484;-85
2021/01/07 09:50:13;;;;;;;2.50;2.10;;;;;;;6.18;92.39;94780.03;5093093;28;20445;-85
2021/01/07 09:52:40;;;;;;;2.30;2.03;;;;;;;6.26;93.19;94786.50;5093332;28;20439;-84
2021/01/07 09:55:08;;;;;;;4.63;3.10;;;;;;;6.36;93.29;94787.50;5093890;28;20451;-86
2021/01/07 09:57:37;;;;;;;3.90;3.30;;;;;;;6.34;92.06;94776.34;5094206;28;20479;-85
2021/01/07 10:00:06;;;;;;;2.80;2.50;;;;;;;6.45;92.71;94777.28;5093499;28;20443;-84
2021/01/07 10:02:32;;;;;;;12.33;6.50;;;;;;;6.47;91.60;94770.19;5093388;28;20435;-85
2021/01/07 10:04:59;;;;;;;4.73;3.90;;;;;;;6.59;91.30;94772.84;5093517;28;20898;-85
2021/01/07 10:07:25;;;;;;;4.00;3.60;;;;;;;6.67;90.64;94770.56;5094853;28;20447;-85
2021/01/07 10:09:51;;;;;;;3.77;3.47;;;;;;;6.78;90.15;94762.78;5092809;28;20483;-85
2021/01/07 10:12:18;;;;;;;6.90;4.07;;;;;;;6.79;89.85;94764.44;5093272;28;20466;-85
2021/01/07 10:14:45;;;;;;;6.43;4.07;;;;;;;6.80;89.08;94763.50;5093310;28;20439;-85
2021/01/07 10:17:12;;;;;;;4.83;4.40;;;;;;;6.94;89.01;94778.16;5094213;28;20447;-84
2021/01/07 10:19:39;;;;;;;4.97;3.80;;;;;;;7.03;88.42;94770.50;5096395;28;20523;-85
2021/01/07 10:22:07;;;;;;;9.80;6.50;;;;;;;7.14;87.99;94767.94;5096027;28;20974;-85
2021/01/07 10:24:40;;;;;;;10.37;4.97;;;;;;;7.24;87.85;94752.44;5094440;28;20443;-86
2021/01/07 10:27:07;;;;;;;4.43;2.73;;;;;;;7.37;87.26;94752.34;5093479;28;20990;-87
2021/01/07 10:29:35;;;;;;;7.47;5.90;;;;;;;7.42;86.31;94745.84;5093742;28;20479;-84
2021/01/07 10:32:06;;;;;;;9.80;6.83;;;;;;;7.44;87.21;94749.16;5093174;28;21001;-85
2021/01/07 10:34:35;;;;;;;5.53;3.90;;;;;;;7.57;87.58;94753.50;5093584;28;20526;-85
2021/01/07 10:37:03;;;;;;;13.43;8.63;;;;;;;7.59;87.36;94749.81;5093469;28;20526;-86
2021/01/07 10:39:32;;;;;;;6.00;4.80;;;;;;;7.50;85.29;94749.66;5093497;28;20452;-85
2021/01/07 10:41:59;;;;;;;10.50;6.10;;;;;;;7.56;86.13;94733.56;5093845;28;20526;-86
2021/01/07 10:44:28;;;;;;;25.30;11.30;;;;;;;7.58;86.49;94739.50;5093175;28;20499;-84
2021/01/07 10:46:59;;;;;;;13.27;7.20;;;;;;;7.38;85.79;94733.97;5093502;28;20494;-85
2021/01/07 10:49:29;;;;;;;8.13;5.30;;;;;;;7.18;86.12;94729.41;5092863;28;20998;-85
2021/01/07 10:52:17;;;;;;;2.77;2.57;;;;;;;7.07;85.79;94731.97;5092841;28;20450;-85
2021/01/07 10:54:53;;;;;;;8.70;5.23;;;;;;;7.12;87.00;94740.28;5013721;28;20431;-86
2021/01/07 10:58:07;;;;;;;7.30;5.63;;;;;;;7.12;88.08;94746.34;5092480;28;20483;-84
2021/01/07 11:00:44;;;;;;;3.37;3.07;;;;;;;6.99;87.08;94739.53;5030363;28;20484;-85
2021/01/07 11:03:46;;;;;;;5.80;3.93;;;;;;;7.03;87.78;94740.97;5030714;28;20448;-86
2021/01/07 11:06:20;;;;;;;5.87;4.50;;;;;;;7.08;87.54;94744.06;5030462;28;20437;-85
2021/01/07 11:08:53;;;;;;;7.90;6.00;;;;;;;7.02;87.83;94747.13;5030495;28;20482;-84
2021/01/07 11:11:23;;;;;;;9.23;6.77;;;;;;;6.94;87.19;94754.66;5032788;28;20438;-85
2021/01/07 11:13:56;;;;;;;5.33;3.90;;;;;;;6.91;87.99;94758.34;5000908;28;20459;-86
2021/01/07 11:16:27;;;;;;;6.07;5.40;;;;;;;6.81;87.36;94752.97;5033933;28;20439;-85
2021/01/07 11:18:58;;;;;;;7.23;5.70;;;;;;;6.79;88.45;94769.66;5033953;28;20450;-85
2021/01/07 11:21:29;;;;;;;9.73;5.60;;;;;;;6.89;88.26;94751.56;5034001;28;20441;-86
2021/01/07 11:23:57;;;;;;;7.50;6.00;;;;;;;6.92;88.05;94748.72;5033609;28;20442;-85
2021/01/07 11:26:25;;;;;;;7.33;5.20;;;;;;;6.97;87.36;94762.28;5033695;28;20970;-86
2021/01/07 11:28:52;;;;;;;7.00;5.67;;;;;;;6.97;87.49;94741.44;5033664;28;21005;-86
2021/01/07 11:31:19;;;;;;;6.70;4.30;;;;;;;7.03;88.00;94756.63;5033463;28;20504;-84
2021/01/07 11:33:46;;;;;;;5.97;4.63;;;;;;;7.21;87.19;94752.66;5033820;28;20496;-85
2021/01/07 11:36:20;;;;;;;8.20;6.10;;;;;;;7.31;86.87;94756.25;5053934;28;20443;-85
2021/01/07 11:38:55;;;;;;;8.17;6.33;;;;;;;7.34;84.97;94745.59;5096005;28;20447;-85
2021/01/07 11:41:39;;;;;;;10.57;5.67;;;;;;;7.39;84.94;94746.06;5096126;28;20474;-86